Time;durP1;ratioP1;P1;durP2;ratioP2;P2;SDS_P1;SDS_P2;PMS_P1;PMS_P2;Temp;Humidity;BMP_temperature;BMP_pressure;BME280_temperature;BME280_humidity;BME280_pressure;Samples;Min_cycle;Max_cycle;Signal;HPM_P1;HPM_P2
2021/08/13 00:01:39;;;;;;;;;;;25.00;70.70;;;;;;5133589;27;19952;-60
2021/08/13 00:04:06;;;;;;;;;;;25.00;70.70;;;;;;5133918;27;19923;-60
2021/08/13 00:06:33;;;;;;;;;;;25.00;70.60;;;;;;5133132;27;19923;-60
2021/08/13 00:09:00;;;;;;;;;;;25.00;70.70;;;;;;5133041;27;19971;-59
2021/08/13 00:11:27;;;;;;;;;;;25.00;70.70;;;;;;5131996;27;19923;-60
2021/08/13 00:13:54;;;;;;;;;;;24.90;70.60;;;;;;5134449;27;20422;-60
2021/08/13 00:16:21;;;;;;;;;;;25.00;70.80;;;;;;5134805;27;20319;-60
2021/08/13 00:18:48;;;;;;;;;;;25.00;70.80;;;;;;5116303;27;20398;-60
2021/08/13 00:21:15;;;;;;;;;;;25.00;70.80;;;;;;5131910;27;19966;-60
2021/08/13 00:23:42;;;;;;;;;;;25.00;70.70;;;;;;5133018;27;19992;-60
2021/08/13 00:26:09;;;;;;;;;;;24.90;70.70;;;;;;5134209;27;20002;-60
2021/08/13 00:28:35;;;;;;;;;;;24.90;70.70;;;;;;5125969;27;19970;-60
2021/08/13 00:31:02;;;;;;;;;;;24.90;70.70;;;;;;5123345;27;19998;-60
2021/08/13 00:33:29;;;;;;;;;;;24.90;70.60;;;;;;5115012;27;19967;-60
2021/08/13 00:35:56;;;;;;;;;;;24.90;70.50;;;;;;5134433;27;20010;-60
2021/08/13 00:38:23;;;;;;;;;;;24.90;70.40;;;;;;5128370;27;19924;-60
2021/08/13 00:40:50;;;;;;;;;;;24.90;70.40;;;;;;5118387;27;19974;-60
2021/08/13 00:43:17;;;;;;;;;;;25.00;70.40;;;;;;5131981;27;20002;-60
2021/08/13 00:45:44;;;;;;;;;;;25.00;70.40;;;;;;5133292;27;20308;-60
2021/08/13 00:48:11;;;;;;;;;;;24.90;70.30;;;;;;5132088;27;19924;-60
2021/08/13 00:50:38;;;;;;;;;;;24.90;70.30;;;;;;5132637;27;19945;-60
2021/08/13 00:53:06;;;;;;;;;;;24.90;70.40;;;;;;5133882;27;19927;-60
2021/08/13 00:55:34;;;;;;;;;;;24.90;70.30;;;;;;5118076;27;19928;-60
2021/08/13 00:58:02;;;;;;;;;;;24.90;70.40;;;;;;5132585;27;19962;-60
2021/08/13 01:00:29;;;;;;;;;;;24.90;70.30;;;;;;5132333;27;19972;-60
2021/08/13 01:02:56;;;;;;;;;;;24.90;70.40;;;;;;5133503;27;20279;-60
2021/08/13 01:05:24;;;;;;;;;;;24.90;70.40;;;;;;5131092;27;20340;-59
2021/08/13 01:07:51;;;;;;;;;;;24.90;70.40;;;;;;5131222;27;19935;-61
2021/08/13 01:10:18;;;;;;;;;;;24.90;70.30;;;;;;5131095;28;19963;-59
2021/08/13 01:12:45;;;;;;;;;;;24.90;70.20;;;;;;5132908;27;19988;-60
2021/08/13 01:15:15;;;;;;;;;;;24.90;70.30;;;;;;5132557;27;20328;-60
2021/08/13 01:17:45;;;;;;;;;;;24.90;70.30;;;;;;5114414;28;19927;-59
2021/08/13 01:20:29;;;;;;;;;;;24.90;70.30;;;;;;5122763;28;20010;-59
2021/08/13 01:23:02;;;;;;;;;;;24.90;70.30;;;;;;5127610;28;19923;-60
2021/08/13 01:25:35;;;;;;;;;;;24.90;70.40;;;;;;5131976;28;19958;-59
2021/08/13 01:28:06;;;;;;;;;;;24.90;70.40;;;;;;5133448;28;20294;-60
2021/08/13 01:30:34;;;;;;;;;;;24.80;70.40;;;;;;5132079;28;20387;-60
2021/08/13 01:33:11;;;;;;;;;;;24.80;70.40;;;;;;5130993;28;20411;-60
2021/08/13 01:35:45;;;;;;;;;;;24.80;70.40;;;;;;5132331;28;19927;-60
2021/08/13 01:38:18;;;;;;;;;;;24.80;70.40;;;;;;5131290;28;19970;-61
2021/08/13 01:40:47;;;;;;;;;;;24.80;70.40;;;;;;5115382;28;19963;-60
2021/08/13 01:43:21;;;;;;;;;;;24.80;70.50;;;;;;5124463;28;19971;-60
2021/08/13 01:45:49;;;;;;;;;;;24.80;70.50;;;;;;5125825;28;20005;-60
2021/08/13 01:48:16;;;;;;;;;;;24.80;70.50;;;;;;5132555;28;19931;-60
2021/08/13 01:50:44;;;;;;;;;;;24.80;70.50;;;;;;5133241;28;20006;-60
2021/08/13 01:53:12;;;;;;;;;;;24.80;70.50;;;;;;5133020;28;19924;-59
2021/08/13 01:55:39;;;;;;;;;;;24.80;70.50;;;;;;5125447;28;19931;-60
2021/08/13 01:58:06;;;;;;;;;;;24.80;70.60;;;;;;5133325;28;19923;-59
2021/08/13 02:00:34;;;;;;;;;;;24.80;70.60;;;;;;5132152;28;19964;-60
2021/08/13 02:03:01;;;;;;;;;;;24.80;70.60;;;;;;5130587;28;20138;-60
2021/08/13 02:05:30;;;;;;;;;;;24.70;70.60;;;;;;5133390;28;19923;-60
2021/08/13 02:07:57;;;;;;;;;;;24.80;70.70;;;;;;5130483;28;20421;-59
2021/08/13 02:10:25;;;;;;;;;;;24.80;70.70;;;;;;5130436;28;19953;-60
2021/08/13 02:12:52;;;;;;;;;;;24.80;70.70;;;;;;5131519;28;19923;-59
2021/08/13 02:15:20;;;;;;;;;;;24.70;70.60;;;;;;5117821;27;19931;-60
2021/08/13 02:17:57;;;;;;;;;;;24.80;70.70;;;;;;5135793;27;19931;-60
2021/08/13 02:20:26;;;;;;;;;;;24.80;70.70;;;;;;5101054;27;19927;-60
2021/08/13 02:22:53;;;;;;;;;;;24.80;70.80;;;;;;5118703;27;19928;-61
2021/08/13 02:25:20;;;;;;;;;;;24.70;70.60;;;;;;5136619;27;19924;-60
2021/08/13 02:27:48;;;;;;;;;;;24.70;70.60;;;;;;5136706;27;19931;-60
2021/08/13 02:30:15;;;;;;;;;;;24.70;70.60;;;;;;5135814;27;19970;-59
2021/08/13 02:32:42;;;;;;;;;;;24.70;70.60;;;;;;5134218;27;20019;-60
2021/08/13 02:35:09;;;;;;;;;;;24.70;70.60;;;;;;5135093;27;19923;-60
2021/08/13 02:37:49;;;;;;;;;;;24.70;70.60;;;;;;5135437;27;19970;-59
2021/08/13 02:40:21;;;;;;;;;;;24.70;70.70;;;;;;5135248;27;19962;-61
2021/08/13 02:42:52;;;;;;;;;;;24.70;70.60;;;;;;5136417;27;20022;-60
2021/08/13 02:45:23;;;;;;;;;;;24.70;70.60;;;;;;5136268;27;19959;-60
2021/08/13 02:47:54;;;;;;;;;;;24.70;70.50;;;;;;5134908;27;19959;-60
2021/08/13 02:50:23;;;;;;;;;;;24.70;70.50;;;;;;5135252;27;19976;-60
2021/08/13 02:53:13;;;;;;;;;;;24.70;70.50;;;;;;5133800;27;19970;-60
2021/08/13 02:56:16;;;;;;;;;;;24.70;70.50;;;;;;5105317;27;20344;-60
2021/08/13 02:58:44;;;;;;;;;;;24.70;71.20;;;;;;5032847;28;19932;-60
2021/08/13 03:01:12;;;;;;;;;;;24.70;70.40;;;;;;5032946;28;19951;-60
2021/08/13 03:03:40;;;;;;;;;;;24.70;70.40;;;;;;5031673;28;19925;-60
2021/08/13 03:06:08;;;;;;;;;;;24.70;70.40;;;;;;5031560;28;19925;-60
2021/08/13 03:08:35;;;;;;;;;;;24.70;70.30;;;;;;5031382;28;19925;-60
2021/08/13 03:11:03;;;;;;;;;;;24.70;70.20;;;;;;5018378;28;19969;-60
2021/08/13 03:13:31;;;;;;;;;;;24.70;70.20;;;;;;5029584;28;19931;-59
2021/08/13 03:15:59;;;;;;;;;;;24.70;70.20;;;;;;5020094;28;19925;-60
2021/08/13 03:18:27;;;;;;;;;;;24.70;70.20;;;;;;5026585;28;20031;-60
2021/08/13 03:20:55;;;;;;;;;;;24.70;70.30;;;;;;5032359;28;20456;-60
2021/08/13 03:23:21;;;;;;;;;;;24.70;70.20;;;;;;5032476;28;19929;-59
2021/08/13 03:25:48;;;;;;;;;;;24.70;70.20;;;;;;5022452;28;20422;-60
2021/08/13 03:28:15;;;;;;;;;;;24.60;70.10;;;;;;5022884;28;19983;-59
2021/08/13 03:30:44;;;;;;;;;;;24.70;70.20;;;;;;5015726;28;20016;-60
2021/08/13 03:33:12;;;;;;;;;;;24.70;70.30;;;;;;5103274;27;20347;-60
2021/08/13 03:35:39;;;;;;;;;;;24.70;70.30;;;;;;5132974;27;20005;-60
2021/08/13 03:38:07;;;;;;;;;;;24.70;70.30;;;;;;5134609;27;20010;-60
2021/08/13 03:40:34;;;;;;;;;;;24.70;70.30;;;;;;5135298;27;20013;-59
2021/08/13 03:43:01;;;;;;;;;;;24.70;70.30;;;;;;5133680;27;19931;-60
2021/08/13 03:45:28;;;;;;;;;;;24.70;70.30;;;;;;5133711;27;20439;-60
2021/08/13 03:47:55;;;;;;;;;;;24.70;70.30;;;;;;5133586;27;19930;-60
2021/08/13 03:50:22;;;;;;;;;;;24.60;70.20;;;;;;5134995;27;19972;-61
2021/08/13 03:52:49;;;;;;;;;;;24.60;70.20;;;;;;5135307;27;19970;-59
2021/08/13 03:55:17;;;;;;;;;;;24.60;70.20;;;;;;5134957;27;19923;-60
2021/08/13 03:57:44;;;;;;;;;;;24.60;70.30;;;;;;5115872;27;19978;-60
2021/08/13 04:00:12;;;;;;;;;;;24.60;70.20;;;;;;5116717;27;19970;-60
2021/08/13 04:02:39;;;;;;;;;;;24.60;70.20;;;;;;5116894;27;20009;-59
2021/08/13 04:05:06;;;;;;;;;;;24.60;70.20;;;;;;5132545;27;20375;-60
2021/08/13 04:07:33;;;;;;;;;;;24.60;70.20;;;;;;5133282;27;19923;-60
2021/08/13 04:10:00;;;;;;;;;;;24.60;70.20;;;;;;5133530;27;19967;-59
2021/08/13 04:12:27;;;;;;;;;;;24.60;70.20;;;;;;5133622;27;20010;-59
2021/08/13 04:14:54;;;;;;;;;;;24.70;70.30;;;;;;5133553;27;19924;-60
2021/08/13 04:17:21;;;;;;;;;;;24.60;70.20;;;;;;5133277;27;19931;-59
2021/08/13 04:19:49;;;;;;;;;;;24.60;70.10;;;;;;5122861;27;19973;-60
2021/08/13 04:22:17;;;;;;;;;;;24.70;70.20;;;;;;5126999;27;20010;-59
2021/08/13 04:24:44;;;;;;;;;;;24.60;70.10;;;;;;5132720;27;19955;-60
2021/08/13 04:27:11;;;;;;;;;;;24.60;70.10;;;;;;5134412;27;20301;-59
2021/08/13 04:29:37;;;;;;;;;;;24.70;70.20;;;;;;5132686;27;20006;-60
2021/08/13 04:32:05;;;;;;;;;;;24.70;70.10;;;;;;5134303;27;19927;-60
2021/08/13 04:34:31;;;;;;;;;;;24.60;69.80;;;;;;5133260;27;19933;-59
2021/08/13 04:36:58;;;;;;;;;;;24.70;69.70;;;;;;5131939;27;19924;-60
2021/08/13 04:39:25;;;;;;;;;;;24.70;69.80;;;;;;5132520;27;20044;-60
2021/08/13 04:41:52;;;;;;;;;;;24.70;69.80;;;;;;5133221;27;19989;-61
2021/08/13 04:44:19;;;;;;;;;;;24.70;69.70;;;;;;5133973;27;19923;-60
2021/08/13 04:46:46;;;;;;;;;;;24.70;69.70;;;;;;5114510;27;19923;-59
2021/08/13 04:49:15;;;;;;;;;;;24.70;69.60;;;;;;5132997;27;20367;-59
2021/08/13 04:51:42;;;;;;;;;;;24.70;69.50;;;;;;5132075;27;19967;-59
2021/08/13 04:54:11;;;;;;;;;;;24.70;69.40;;;;;;5128874;27;20439;-60
2021/08/13 04:56:39;;;;;;;;;;;24.70;69.30;;;;;;5133493;27;19953;-60
2021/08/13 04:59:06;;;;;;;;;;;24.70;69.30;;;;;;5115858;27;19924;-60
2021/08/13 05:01:33;;;;;;;;;;;24.80;69.30;;;;;;5132590;27;19966;-59
2021/08/13 05:04:01;;;;;;;;;;;24.80;69.30;;;;;;5133756;27;20299;-60
2021/08/13 05:06:28;;;;;;;;;;;24.80;69.30;;;;;;5133860;27;19999;-60
2021/08/13 05:08:55;;;;;;;;;;;24.80;69.20;;;;;;5119023;27;20381;-60
2021/08/13 05:11:22;;;;;;;;;;;24.80;69.20;;;;;;5129156;27;19986;-59
2021/08/13 05:13:48;;;;;;;;;;;24.80;69.20;;;;;;5132508;27;19980;-60
2021/08/13 05:16:15;;;;;;;;;;;24.80;69.10;;;;;;5132365;27;19923;-60
2021/08/13 05:18:43;;;;;;;;;;;24.90;69.20;;;;;;5133572;28;20442;-60
2021/08/13 05:21:10;;;;;;;;;;;24.80;69.10;;;;;;5132307;28;19923;-59
2021/08/13 05:23:37;;;;;;;;;;;24.90;69.20;;;;;;5133404;28;19970;-59
2021/08/13 05:26:03;;;;;;;;;;;24.90;69.30;;;;;;5131213;28;19974;-60
2021/08/13 05:28:34;;;;;;;;;;;24.90;69.20;;;;;;5132440;28;19924;-59
2021/08/13 05:31:01;;;;;;;;;;;24.90;69.20;;;;;;5131032;28;19952;-59
2021/08/13 05:33:29;;;;;;;;;;;24.90;69.10;;;;;;5132501;28;19923;-59
2021/08/13 05:35:55;;;;;;;;;;;25.00;69.30;;;;;;5132350;28;19988;-60
2021/08/13 05:38:22;;;;;;;;;;;24.90;69.20;;;;;;5132227;28;19928;-59
2021/08/13 05:40:49;;;;;;;;;;;25.00;69.20;;;;;;5131970;28;20014;-60
2021/08/13 05:43:16;;;;;;;;;;;25.00;69.00;;;;;;5133681;28;20022;-59
2021/08/13 05:45:43;;;;;;;;;;;25.00;69.10;;;;;;5133250;28;19969;-59
2021/08/13 05:48:10;;;;;;;;;;;25.10;69.10;;;;;;5132176;28;19967;-59
2021/08/13 05:50:37;;;;;;;;;;;25.10;69.00;;;;;;5135620;27;19929;-60
2021/08/13 05:53:04;;;;;;;;;;;25.10;68.90;;;;;;5119520;27;20014;-60
2021/08/13 05:55:31;;;;;;;;;;;25.20;68.90;;;;;;5134983;27;20413;-60
2021/08/13 05:57:58;;;;;;;;;;;25.20;68.90;;;;;;5102128;28;19930;-61
2021/08/13 06:00:25;;;;;;;;;;;25.20;68.80;;;;;;5120132;27;19924;-60
2021/08/13 06:03:02;;;;;;;;;;;25.20;68.80;;;;;;5132286;27;19928;-59
2021/08/13 06:05:29;;;;;;;;;;;25.20;68.80;;;;;;5135583;27;20347;-61
2021/08/13 06:07:56;;;;;;;;;;;25.20;68.60;;;;;;5135884;27;19967;-59
2021/08/13 06:10:23;;;;;;;;;;;25.20;68.70;;;;;;5124831;27;20391;-60
2021/08/13 06:12:50;;;;;;;;;;;25.30;68.80;;;;;;5118689;27;19967;-60
2021/08/13 06:15:17;;;;;;;;;;;25.30;68.70;;;;;;5127684;27;19989;-60
2021/08/13 06:17:45;;;;;;;;;;;25.30;68.70;;;;;;5137069;27;19930;-60
2021/08/13 06:20:13;;;;;;;;;;;25.30;68.50;;;;;;5136647;27;19934;-59
2021/08/13 06:22:40;;;;;;;;;;;25.30;69.20;;;;;;5136758;27;20437;-60
2021/08/13 06:25:07;;;;;;;;;;;25.40;68.70;;;;;;5136295;27;19923;-60
2021/08/13 06:27:38;;;;;;;;;;;25.40;68.60;;;;;;5129551;27;19963;-60
2021/08/13 06:30:05;;;;;;;;;;;25.40;68.60;;;;;;5122079;27;19980;-60
2021/08/13 06:32:32;;;;;;;;;;;25.40;68.40;;;;;;5118263;27;19927;-59
2021/08/13 06:34:59;;;;;;;;;;;25.40;68.30;;;;;;5136433;27;19931;-60
2021/08/13 06:37:26;;;;;;;;;;;25.50;68.40;;;;;;5136373;27;20438;-60
2021/08/13 06:39:53;;;;;;;;;;;25.40;68.30;;;;;;5133850;27;19924;-59
2021/08/13 06:42:20;;;;;;;;;;;25.50;68.50;;;;;;5135432;27;20355;-60
2021/08/13 06:44:48;;;;;;;;;;;25.50;68.10;;;;;;5117394;27;20002;-59
2021/08/13 06:47:15;;;;;;;;;;;25.50;68.20;;;;;;5135916;27;19999;-59
2021/08/13 06:49:43;;;;;;;;;;;25.50;67.90;;;;;;5117298;27;19934;-60
2021/08/13 06:52:13;;;;;;;;;;;25.50;68.00;;;;;;5117421;27;20002;-60
2021/08/13 06:54:40;;;;;;;;;;;25.60;68.10;;;;;;5126692;27;19973;-60
2021/08/13 06:57:07;;;;;;;;;;;25.60;68.00;;;;;;5119012;27;19935;-60
2021/08/13 06:59:34;;;;;;;;;;;25.60;68.70;;;;;;5133308;27;19931;-60
2021/08/13 07:02:01;;;;;;;;;;;25.70;67.70;;;;;;5132897;27;19923;-60
2021/08/13 07:04:29;;;;;;;;;;;25.70;68.00;;;;;;5133477;27;19946;-60
2021/08/13 07:06:55;;;;;;;;;;;25.70;67.60;;;;;;5134701;27;19923;-60
2021/08/13 07:09:22;;;;;;;;;;;25.70;67.50;;;;;;5123201;27;19928;-59
2021/08/13 07:11:49;;;;;;;;;;;25.70;67.60;;;;;;5127027;27;20010;-59
2021/08/13 07:14:16;;;;;;;;;;;25.70;67.80;;;;;;5133939;27;20002;-60
2021/08/13 07:16:43;;;;;;;;;;;25.80;68.50;;;;;;5135653;27;19924;-60
2021/08/13 07:19:10;;;;;;;;;;;25.80;67.90;;;;;;5135617;27;20454;-59
2021/08/13 07:21:37;;;;;;;;;;;25.80;67.90;;;;;;5134267;27;19923;-59
2021/08/13 07:24:04;;;;;;;;;;;25.80;67.90;;;;;;5134641;27;20006;-60
2021/08/13 07:26:31;;;;;;;;;;;25.80;68.00;;;;;;5133082;27;19977;-60
2021/08/13 07:28:58;;;;;;;;;;;25.80;68.20;;;;;;5135344;27;20010;-60
2021/08/13 07:31:25;;;;;;;;;;;25.80;67.60;;;;;;5113467;27;20323;-59
2021/08/13 07:33:52;;;;;;;;;;;25.90;68.10;;;;;;5117247;27;20383;-60
2021/08/13 07:36:24;;;;;;;;;;;25.90;68.00;;;;;;5117458;27;20010;-60
2021/08/13 07:38:52;;;;;;;;;;;25.90;67.90;;;;;;5117314;27;19998;-59
2021/08/13 07:41:19;;;;;;;;;;;26.00;67.60;;;;;;5133919;27;19999;-60
2021/08/13 07:43:46;;;;;;;;;;;26.00;67.80;;;;;;5134832;27;19978;-60
2021/08/13 07:46:13;;;;;;;;;;;26.00;67.70;;;;;;5116228;27;19927;-60
2021/08/13 07:48:40;;;;;;;;;;;26.10;67.80;;;;;;5134995;27;19931;-59
2021/08/13 07:51:07;;;;;;;;;;;26.10;67.50;;;;;;5133224;27;19964;-59
2021/08/13 07:53:34;;;;;;;;;;;26.10;67.60;;;;;;5133721;27;19924;-60
2021/08/13 07:56:02;;;;;;;;;;;26.10;68.20;;;;;;5134421;27;19924;-60
2021/08/13 07:58:28;;;;;;;;;;;26.20;68.40;;;;;;5132373;27;19929;-60
2021/08/13 08:00:55;;;;;;;;;;;26.20;68.00;;;;;;5133699;27;19992;-60
2021/08/13 08:03:22;;;;;;;;;;;26.20;68.10;;;;;;5134789;27;19968;-61
2021/08/13 08:05:49;;;;;;;;;;;26.20;67.50;;;;;;5135067;27;19923;-60
2021/08/13 08:08:16;;;;;;;;;;;26.20;67.90;;;;;;5132336;27;19923;-60
2021/08/13 08:10:46;;;;;;;;;;;26.20;67.50;;;;;;5134647;27;19924;-60
2021/08/13 08:13:13;;;;;;;;;;;26.20;67.50;;;;;;5132862;27;19984;-60
2021/08/13 08:15:40;;;;;;;;;;;26.30;67.70;;;;;;5134503;27;19928;-60
2021/08/13 08:18:08;;;;;;;;;;;26.30;67.80;;;;;;5134183;27;19965;-60
2021/08/13 08:20:35;;;;;;;;;;;26.30;69.00;;;;;;5133466;27;20459;-59
2021/08/13 08:23:02;;;;;;;;;;;26.30;67.90;;;;;;5134228;27;19951;-60
2021/08/13 08:25:29;;;;;;;;;;;26.30;68.00;;;;;;5132722;27;20413;-59
2021/08/13 08:27:56;;;;;;;;;;;26.30;67.50;;;;;;5129895;27;19930;-59
2021/08/13 08:30:23;;;;;;;;;;;26.30;68.10;;;;;;5116965;27;19976;-60
2021/08/13 08:32:50;;;;;;;;;;;26.40;68.50;;;;;;5116714;27;19924;-60
2021/08/13 08:35:17;;;;;;;;;;;26.40;68.00;;;;;;5134236;27;19923;-60
2021/08/13 08:37:53;;;;;;;;;;;26.40;67.70;;;;;;5133436;27;19924;-60
2021/08/13 08:40:25;;;;;;;;;;;26.40;67.20;;;;;;5115511;27;20353;-60
2021/08/13 08:42:54;;;;;;;;;;;26.40;67.20;;;;;;5115164;27;20399;-60
2021/08/13 08:45:21;;;;;;;;;;;26.40;67.20;;;;;;5132541;27;20018;-60
2021/08/13 08:47:48;;;;;;;;;;;26.50;67.20;;;;;;5134432;27;20003;-60
2021/08/13 08:50:16;;;;;;;;;;;26.50;67.60;;;;;;5133021;27;20360;-60
2021/08/13 08:52:44;;;;;;;;;;;26.50;67.70;;;;;;5132759;27;19998;-60
2021/08/13 08:55:12;;;;;;;;;;;26.50;67.80;;;;;;5132683;27;19968;-60
2021/08/13 08:57:40;;;;;;;;;;;26.50;67.90;;;;;;5131923;27;19938;-60
2021/08/13 09:00:07;;;;;;;;;;;26.60;67.90;;;;;;5132705;27;19975;-60
2021/08/13 09:02:34;;;;;;;;;;;26.60;67.60;;;;;;5132634;27;20290;-61
2021/08/13 09:05:02;;;;;;;;;;;26.60;67.80;;;;;;5133713;27;19927;-60
2021/08/13 09:07:29;;;;;;;;;;;26.60;67.70;;;;;;5133428;27;19923;-61
2021/08/13 09:09:56;;;;;;;;;;;26.60;67.70;;;;;;5132480;27;19923;-59
2021/08/13 09:12:23;;;;;;;;;;;26.60;67.80;;;;;;5133873;27;20291;-59
2021/08/13 09:14:50;;;;;;;;;;;26.60;67.70;;;;;;5113837;28;19924;-60
2021/08/13 09:17:18;;;;;;;;;;;26.60;67.60;;;;;;5124218;27;20006;-59
2021/08/13 09:19:48;;;;;;;;;;;26.60;67.70;;;;;;5115563;28;19989;-60
2021/08/13 09:22:16;;;;;;;;;;;26.70;67.60;;;;;;5122082;28;19927;-59
2021/08/13 09:24:44;;;;;;;;;;;26.70;67.80;;;;;;5119362;27;19923;-60
2021/08/13 09:27:18;;;;;;;;;;;26.70;67.60;;;;;;5138915;27;19923;-60
2021/08/13 09:30:03;;;;;;;;;;;26.70;68.00;;;;;;5135650;27;19978;-60
2021/08/13 09:32:30;;;;;;;;;;;26.70;67.90;;;;;;5129415;27;19953;-60
2021/08/13 09:34:57;;;;;;;;;;;26.80;68.10;;;;;;5140213;27;20035;-60
2021/08/13 09:37:24;;;;;;;;;;;26.80;68.00;;;;;;5138031;27;19953;-60
2021/08/13 09:39:56;;;;;;;;;;;26.80;67.90;;;;;;5140444;27;20022;-61
2021/08/13 09:42:34;;;;;;;;;;;26.80;67.90;;;;;;5137545;27;19923;-60
2021/08/13 09:45:02;;;;;;;;;;;26.80;67.50;;;;;;5139164;27;19923;-60
2021/08/13 09:47:39;;;;;;;;;;;26.80;68.10;;;;;;5140106;27;19974;-59
2021/08/13 09:50:07;;;;;;;;;;;26.80;67.90;;;;;;5137837;27;19923;-60
2021/08/13 09:52:34;;;;;;;;;;;26.80;67.80;;;;;;5137592;27;19923;-60
2021/08/13 09:55:08;;;;;;;;;;;26.80;67.80;;;;;;5131365;27;19976;-60
2021/08/13 09:57:39;;;;;;;;;;;26.80;67.70;;;;;;5138426;27;19970;-59
2021/08/13 10:00:09;;;;;;;;;;;26.80;67.70;;;;;;5140001;27;19977;-60
2021/08/13 10:02:38;;;;;;;;;;;26.80;67.70;;;;;;5137507;27;19930;-60
2021/08/13 10:05:17;;;;;;;;;;;26.80;67.80;;;;;;5140286;27;20436;-60
2021/08/13 10:07:45;;;;;;;;;;;26.90;67.80;;;;;;5122126;27;19931;-59
2021/08/13 10:10:13;;;;;;;;;;;26.80;67.80;;;;;;5139839;27;20002;-59
2021/08/13 10:12:49;;;;;;;;;;;26.80;67.60;;;;;;5139381;27;19972;-60
2021/08/13 10:15:28;;;;;;;;;;;26.80;67.70;;;;;;5103110;27;19969;-59
2021/08/13 10:17:56;;;;;;;;;;;26.80;68.20;;;;;;5123176;27;19923;-60
2021/08/13 10:20:24;;;;;;;;;;;26.80;67.50;;;;;;5122084;27;20354;-59
2021/08/13 10:22:51;;;;;;;;;;;26.80;67.40;;;;;;5121843;27;20356;-60
2021/08/13 10:25:19;;;;;;;;;;;26.80;67.40;;;;;;5140053;27;19967;-60
2021/08/13 10:27:47;;;;;;;;;;;26.80;67.50;;;;;;5139829;27;19934;-60
2021/08/13 10:30:18;;;;;;;;;;;26.80;67.40;;;;;;5121663;27;19931;-60
2021/08/13 10:32:45;;;;;;;;;;;26.90;68.20;;;;;;5119926;27;19946;-60
2021/08/13 10:35:13;;;;;;;;;;;26.90;67.20;;;;;;5138125;27;19974;-59
2021/08/13 10:37:41;;;;;;;;;;;26.90;67.40;;;;;;5135395;27;19972;-59
2021/08/13 10:40:09;;;;;;;;;;;26.90;67.20;;;;;;5134015;27;19958;-60
2021/08/13 10:42:38;;;;;;;;;;;26.90;67.30;;;;;;5134996;27;19962;-60
2021/08/13 10:45:06;;;;;;;;;;;26.90;67.30;;;;;;5134921;27;19968;-60
2021/08/13 10:47:41;;;;;;;;;;;26.90;67.60;;;;;;5135266;27;19962;-60
2021/08/13 10:50:08;;;;;;;;;;;26.90;67.10;;;;;;5116751;27;19967;-60
2021/08/13 10:52:36;;;;;;;;;;;26.90;67.60;;;;;;5135957;27;19923;-60
2021/08/13 10:55:04;;;;;;;;;;;26.90;67.40;;;;;;5135877;27;20010;-60
2021/08/13 10:57:51;;;;;;;;;;;26.90;67.30;;;;;;5134540;27;19967;-59
2021/08/13 11:00:21;;;;;;;;;;;26.90;67.20;;;;;;5118304;27;19927;-60
2021/08/13 11:03:07;;;;;;;;;;;26.90;67.50;;;;;;5124206;27;20015;-60
2021/08/13 11:05:54;;;;;;;;;;;26.90;67.60;;;;;;5129684;27;19927;-60
2021/08/13 11:08:21;;;;;;;;;;;27.00;68.00;;;;;;5120488;27;19924;-60
2021/08/13 11:10:48;;;;;;;;;;;27.00;67.10;;;;;;5130573;27;20437;-60
2021/08/13 11:13:19;;;;;;;;;;;27.00;67.70;;;;;;5134330;27;20019;-60
2021/08/13 11:15:47;;;;;;;;;;;27.00;67.90;;;;;;5121602;27;19928;-60
2021/08/13 11:18:30;;;;;;;;;;;27.00;67.90;;;;;;5128303;27;20451;-59
2021/08/13 11:20:58;;;;;;;;;;;27.00;66.90;;;;;;5122243;27;19968;-60
2021/08/13 11:23:25;;;;;;;;;;;27.00;66.90;;;;;;5129577;27;19966;-60
2021/08/13 11:25:53;;;;;;;;;;;27.00;67.60;;;;;;5133309;27;19966;-60
2021/08/13 11:28:23;;;;;;;;;;;27.00;67.70;;;;;;5135347;27;19963;-60
2021/08/13 11:30:50;;;;;;;;;;;27.00;67.20;;;;;;5114742;27;20008;-60
2021/08/13 11:33:24;;;;;;;;;;;27.00;67.50;;;;;;5135658;27;19923;-60
2021/08/13 11:35:51;;;;;;;;;;;27.10;66.80;;;;;;5134137;27;20019;-59
2021/08/13 11:38:36;;;;;;;;;;;27.10;67.40;;;;;;5115770;27;20010;-60
2021/08/13 11:41:23;;;;;;;;;;;27.10;67.00;;;;;;5134317;27;19985;-60
2021/08/13 11:43:51;;;;;;;;;;;27.10;66.60;;;;;;5134147;27;20086;-60
2021/08/13 11:46:23;;;;;;;;;;;27.10;67.10;;;;;;5131439;27;20014;-60
2021/08/13 11:48:53;;;;;;;;;;;27.10;67.20;;;;;;5134629;27;19987;-61
2021/08/13 11:51:21;;;;;;;;;;;27.10;67.00;;;;;;5115586;27;20298;-60
2021/08/13 11:53:48;;;;;;;;;;;27.10;67.10;;;;;;5133573;27;20344;-60
2021/08/13 11:56:25;;;;;;;;;;;27.10;66.90;;;;;;5133598;27;19923;-60
2021/08/13 11:58:57;;;;;;;;;;;27.10;66.50;;;;;;5126513;27;19923;-60
2021/08/13 12:01:26;;;;;;;;;;;27.10;67.10;;;;;;5123800;27;20329;-60
2021/08/13 12:03:53;;;;;;;;;;;27.10;66.90;;;;;;5129137;27;19928;-60
2021/08/13 12:06:20;;;;;;;;;;;27.10;66.50;;;;;;5117355;27;20440;-60
2021/08/13 12:08:48;;;;;;;;;;;27.00;67.50;;;;;;5122075;27;19930;-60
2021/08/13 12:11:21;;;;;;;;;;;27.00;66.50;;;;;;5130152;27;19924;-60
2021/08/13 12:13:48;;;;;;;;;;;27.10;67.30;;;;;;5119364;27;19949;-60
2021/08/13 12:16:18;;;;;;;;;;;27.00;67.00;;;;;;5133351;27;20010;-60
2021/08/13 12:18:45;;;;;;;;;;;27.00;67.20;;;;;;5133382;27;19969;-60
2021/08/13 12:21:13;;;;;;;;;;;27.00;67.20;;;;;;5132968;27;20418;-60
2021/08/13 12:23:52;;;;;;;;;;;27.00;67.00;;;;;;5133559;27;19923;-60
2021/08/13 12:26:26;;;;;;;;;;;27.00;67.00;;;;;;5114946;27;19953;-59
2021/08/13 12:28:52;;;;;;;;;;;27.00;66.90;;;;;;5132860;27;19923;-60
2021/08/13 12:31:20;;;;;;;;;;;27.00;66.60;;;;;;5133877;27;19931;-60
2021/08/13 12:33:54;;;;;;;;;;;27.00;67.30;;;;;;5133628;27;19983;-60
2021/08/13 12:36:21;;;;;;;;;;;27.00;67.20;;;;;;5132071;27;20506;-60
2021/08/13 12:38:52;;;;;;;;;;;27.00;67.10;;;;;;5132477;27;19923;-60
2021/08/13 12:41:20;;;;;;;;;;;27.00;67.50;;;;;;5133859;27;19927;-61
2021/08/13 12:43:47;;;;;;;;;;;27.00;67.10;;;;;;5134534;27;19927;-60
2021/08/13 12:46:14;;;;;;;;;;;27.00;66.80;;;;;;5133702;27;20391;-60
2021/08/13 12:48:42;;;;;;;;;;;27.00;67.10;;;;;;5115695;27;19973;-60
2021/08/13 12:51:09;;;;;;;;;;;27.00;67.10;;;;;;5132486;27;19924;-60
2021/08/13 12:53:37;;;;;;;;;;;27.00;67.30;;;;;;5132170;27;19943;-60
2021/08/13 12:56:15;;;;;;;;;;;27.00;67.00;;;;;;5133747;27;20350;-60
2021/08/13 12:58:41;;;;;;;;;;;27.00;66.90;;;;;;5131307;27;20026;-60
2021/08/13 13:01:22;;;;;;;;;;;27.00;67.20;;;;;;5115515;27;19924;-60
2021/08/13 13:04:09;;;;;;;;;;;27.10;66.80;;;;;;5132439;27;19927;-60
2021/08/13 13:06:36;;;;;;;;;;;27.10;66.90;;;;;;5131409;27;19963;-60
2021/08/13 13:09:03;;;;;;;;;;;27.10;66.70;;;;;;5132513;27;19958;-60
2021/08/13 13:11:34;;;;;;;;;;;27.10;67.20;;;;;;5132318;27;19924;-60
2021/08/13 13:14:14;;;;;;;;;;;27.20;66.80;;;;;;5133958;27;20006;-60
2021/08/13 13:17:00;;;;;;;;;;;27.20;66.60;;;;;;5132705;27;20267;-60
2021/08/13 13:19:27;;;;;;;;;;;27.20;66.40;;;;;;5132375;27;19970;-60
2021/08/13 13:22:12;;;;;;;;;;;27.20;66.70;;;;;;5132377;28;20336;-60
2021/08/13 13:24:39;;;;;;;;;;;27.10;66.40;;;;;;5132328;28;20431;-60
2021/08/13 13:27:06;;;;;;;;;;;27.10;66.40;;;;;;5132526;28;20588;-60
2021/08/13 13:29:37;;;;;;;;;;;27.10;66.50;;;;;;5133675;28;19976;-60
2021/08/13 13:32:16;;;;;;;;;;;27.10;66.30;;;;;;5131111;28;19923;-61
2021/08/13 13:34:55;;;;;;;;;;;27.10;66.40;;;;;;5130843;28;19930;-60
2021/08/13 13:37:22;;;;;;;;;;;27.10;66.40;;;;;;5132449;28;19923;-59
2021/08/13 13:39:49;;;;;;;;;;;27.10;66.20;;;;;;5133288;28;19928;-60
2021/08/13 13:42:16;;;;;;;;;;;27.10;66.00;;;;;;5132345;28;19923;-60
2021/08/13 13:44:43;;;;;;;;;;;27.20;66.00;;;;;;5131858;28;20018;-60
2021/08/13 13:47:10;;;;;;;;;;;27.20;65.90;;;;;;5132189;28;19923;-60
2021/08/13 13:49:37;;;;;;;;;;;27.10;65.70;;;;;;5121877;28;19973;-60
2021/08/13 13:52:04;;;;;;;;;;;27.10;65.60;;;;;;5125485;28;20457;-60
2021/08/13 13:54:31;;;;;;;;;;;27.10;65.50;;;;;;5130174;28;20374;-59
2021/08/13 13:56:58;;;;;;;;;;;27.10;65.30;;;;;;5124197;28;19931;-60
2021/08/13 13:59:25;;;;;;;;;;;27.10;65.20;;;;;;5122983;28;19976;-61
2021/08/13 14:01:52;;;;;;;;;;;27.10;65.20;;;;;;5126408;28;19923;-60
2021/08/13 14:04:19;;;;;;;;;;;27.10;65.20;;;;;;5118381;28;19924;-60
2021/08/13 14:06:46;;;;;;;;;;;27.10;65.10;;;;;;5132464;28;19924;-60
2021/08/13 14:09:13;;;;;;;;;;;27.10;64.90;;;;;;5130689;28;19966;-59
2021/08/13 14:11:40;;;;;;;;;;;27.10;64.90;;;;;;5134742;27;19924;-60
2021/08/13 14:14:07;;;;;;;;;;;27.10;64.70;;;;;;5136032;27;19924;-60
2021/08/13 14:16:34;;;;;;;;;;;27.10;64.60;;;;;;5136870;27;19928;-60
2021/08/13 14:19:02;;;;;;;;;;;27.10;64.70;;;;;;5137077;27;19923;-60
2021/08/13 14:21:29;;;;;;;;;;;27.10;64.60;;;;;;5135073;27;20332;-60
2021/08/13 14:23:57;;;;;;;;;;;27.10;64.50;;;;;;5136826;27;19930;-59
2021/08/13 14:26:24;;;;;;;;;;;27.20;64.70;;;;;;5119661;27;20373;-60